createdAt,value
2022-08-31T00:00:40.816Z,16.25
2022-08-31T00:03:28.118Z,15.00
2022-08-31T00:06:04.147Z,16.75
2022-08-31T00:08:33.647Z,16.00
2022-08-31T00:11:01.928Z,15.50
2022-08-31T00:13:30.308Z,16.67
2022-08-31T00:15:58.866Z,16.00
2022-08-31T00:18:27.975Z,16.25
2022-08-31T00:20:56.236Z,16.67
2022-08-31T00:23:26.367Z,17.25
2022-08-31T00:25:54.706Z,17.00
2022-08-31T00:28:23.046Z,15.25
2022-08-31T00:30:51.436Z,16.50
2022-08-31T00:33:19.803Z,15.00
2022-08-31T00:35:48.167Z,16.50
2022-08-31T00:38:16.705Z,16.25
2022-08-31T00:40:47.132Z,15.00
2022-08-31T00:43:35.700Z,16.50
2022-08-31T00:46:04.551Z,17.00
2022-08-31T00:48:34.271Z,18.50
2022-08-31T00:51:02.890Z,17.75
2022-08-31T00:53:31.560Z,18.00
2022-08-31T00:56:00.024Z,17.75
2022-08-31T00:58:28.803Z,17.75
2022-08-31T01:00:59.564Z,18.50
2022-08-31T01:03:28.020Z,19.00
2022-08-31T01:05:56.323Z,18.00
2022-08-31T01:08:30.668Z,18.00
2022-08-31T01:11:00.250Z,20.25
2022-08-31T01:13:30.921Z,19.25
2022-08-31T01:16:04.546Z,18.67
2022-08-31T01:18:34.771Z,17.33
2022-08-31T01:21:05.460Z,20.67
2022-08-31T01:23:39.090Z,19.00
2022-08-31T01:26:09.026Z,21.00
2022-08-31T01:28:37.561Z,20.67
2022-08-31T01:31:06.058Z,19.00
2022-08-31T01:33:38.301Z,20.67
2022-08-31T01:36:11.014Z,20.67
2022-08-31T01:38:42.481Z,20.00
2022-08-31T01:41:14.531Z,20.25
2022-08-31T01:43:43.090Z,19.33
2022-08-31T01:46:13.550Z,18.00
2022-08-31T01:48:44.003Z,19.25
2022-08-31T01:51:16.230Z,18.67
2022-08-31T01:53:48.426Z,19.00
2022-08-31T01:56:21.932Z,17.25
2022-08-31T01:58:50.950Z,18.00
2022-08-31T02:01:39.162Z,17.50
2022-08-31T02:04:09.077Z,16.75
2022-08-31T02:06:41.048Z,18.00
2022-08-31T02:09:10.322Z,18.00
2022-08-31T02:11:39.067Z,16.00
2022-08-31T02:14:08.691Z,16.25
2022-08-31T02:16:38.596Z,18.50
2022-08-31T02:19:08.915Z,16.00
2022-08-31T02:21:37.963Z,17.00
2022-08-31T02:24:07.000Z,16.75
2022-08-31T02:26:35.500Z,17.00
2022-08-31T02:29:07.731Z,15.75
2022-08-31T02:31:36.597Z,15.00
2022-08-31T02:34:05.701Z,15.33
2022-08-31T02:36:35.752Z,15.50
2022-08-31T02:39:07.087Z,16.75
2022-08-31T02:41:36.391Z,15.33
2022-08-31T02:44:05.368Z,14.75
2022-08-31T02:46:34.937Z,15.25
2022-08-31T02:49:33.559Z,14.00
2022-08-31T02:52:03.001Z,13.50
2022-08-31T02:54:31.380Z,14.00
2022-08-31T02:57:00.979Z,14.33
2022-08-31T02:59:29.632Z,14.25
2022-08-31T03:01:59.388Z,14.00
2022-08-31T03:04:28.942Z,14.00
2022-08-31T03:06:57.503Z,13.67
2022-08-31T03:09:25.904Z,14.00
2022-08-31T03:11:54.442Z,14.00
2022-08-31T03:14:22.822Z,14.00
2022-08-31T03:16:54.123Z,12.75
2022-08-31T03:19:22.510Z,14.25
2022-08-31T03:21:55.802Z,14.25
2022-08-31T03:24:27.222Z,13.50
2022-08-31T03:26:58.523Z,14.00
2022-08-31T03:29:26.991Z,12.50
2022-08-31T03:31:55.372Z,12.75
2022-08-31T03:34:25.220Z,13.00
2022-08-31T03:36:53.480Z,14.00
2022-08-31T03:39:21.801Z,12.75
2022-08-31T03:41:50.410Z,13.75
2022-08-31T03:44:21.991Z,12.75
2022-08-31T03:46:51.258Z,12.67
2022-08-31T03:49:20.710Z,12.75
2022-08-31T03:52:06.203Z,12.50
2022-08-31T03:54:44.141Z,13.00
2022-08-31T03:57:13.760Z,14.00
2022-08-31T03:59:42.231Z,12.25
2022-08-31T04:02:20.025Z,12.25
2022-08-31T04:05:18.291Z,14.00
2022-08-31T04:08:05.431Z,12.00
2022-08-31T04:10:48.360Z,12.75
2022-08-31T04:13:36.711Z,12.75
2022-08-31T04:16:33.650Z,12.25
2022-08-31T04:19:38.631Z,14.00
2022-08-31T04:22:24.675Z,14.00
2022-08-31T04:25:17.532Z,13.00
2022-08-31T04:27:50.683Z,12.75
2022-08-31T04:30:21.651Z,12.00
2022-08-31T04:32:50.679Z,14.00
2022-08-31T04:35:19.063Z,12.00
2022-08-31T04:37:47.682Z,13.00
2022-08-31T04:40:23.569Z,12.33
2022-08-31T04:42:55.551Z,12.50
2022-08-31T04:45:25.452Z,12.50
2022-08-31T04:47:54.261Z,13.00
2022-08-31T04:50:22.854Z,13.25
2022-08-31T04:53:11.281Z,13.00
2022-08-31T04:55:43.802Z,12.25
2022-08-31T04:58:14.381Z,12.00
2022-08-31T05:00:44.323Z,13.00
2022-08-31T05:03:40.490Z,12.67
2022-08-31T05:06:15.645Z,13.25
2022-08-31T05:08:44.787Z,12.75
2022-08-31T05:11:16.446Z,12.25
2022-08-31T05:13:45.495Z,12.00
2022-08-31T05:16:16.497Z,12.50
2022-08-31T05:18:47.077Z,13.00
2022-08-31T05:21:32.265Z,13.00
2022-08-31T05:24:06.843Z,12.25
2022-08-31T05:26:42.073Z,12.75
2022-08-31T05:29:14.757Z,13.00
2022-08-31T05:31:48.036Z,13.75
2022-08-31T05:34:19.772Z,14.00
2022-08-31T05:36:52.758Z,13.75
2022-08-31T05:39:21.895Z,14.00
2022-08-31T05:41:50.546Z,14.00
2022-08-31T05:44:22.865Z,14.25
2022-08-31T05:47:03.956Z,13.50
2022-08-31T05:49:36.130Z,14.00
2022-08-31T05:52:05.678Z,15.25
2022-08-31T05:54:36.595Z,15.50
2022-08-31T05:57:07.307Z,16.50
2022-08-31T05:59:35.877Z,16.75
2022-08-31T06:02:05.410Z,17.00
2022-08-31T06:04:35.546Z,16.25
2022-08-31T06:07:03.846Z,19.00
2022-08-31T06:09:46.715Z,19.33
2022-08-31T06:12:23.136Z,18.75
2022-08-31T06:14:53.446Z,18.25
2022-08-31T06:17:24.528Z,19.00
2022-08-31T06:19:53.586Z,18.33
2022-08-31T06:22:22.106Z,18.00
2022-08-31T06:24:51.527Z,17.75
2022-08-31T06:27:20.105Z,18.00
2022-08-31T06:29:49.720Z,18.00
2022-08-31T06:32:18.037Z,18.00
2022-08-31T06:34:56.316Z,18.25
2022-08-31T06:37:45.554Z,18.00
2022-08-31T06:40:50.001Z,19.00
2022-08-31T06:43:53.876Z,20.67
2022-08-31T06:46:39.629Z,19.67
2022-08-31T06:49:20.867Z,18.50
2022-08-31T06:51:51.036Z,19.00
2022-08-31T06:54:35.500Z,20.67
2022-08-31T06:57:42.596Z,20.50
2022-08-31T07:00:35.496Z,19.50
2022-08-31T07:03:33.461Z,19.50
2022-08-31T07:06:09.434Z,19.00
2022-08-31T07:08:40.776Z,21.50
2022-08-31T07:11:15.553Z,20.50
2022-08-31T07:13:44.196Z,20.50
2022-08-31T07:16:16.166Z,21.00
2022-08-31T07:21:53.973Z,18.00
2022-08-31T07:24:26.003Z,19.00
2022-08-31T07:27:10.315Z,17.50
2022-08-31T07:29:51.153Z,20.75
2022-08-31T07:32:20.894Z,20.50
2022-08-31T07:34:58.468Z,17.67
2022-08-31T07:38:03.756Z,19.33
2022-08-31T07:40:53.660Z,17.75
2022-08-31T07:43:24.394Z,17.75
2022-08-31T07:45:53.524Z,17.50
2022-08-31T07:48:26.153Z,19.33
2022-08-31T07:51:18.152Z,19.33
2022-08-31T07:53:59.410Z,16.75
2022-08-31T07:56:53.021Z,16.25
2022-08-31T07:59:23.753Z,18.25
2022-08-31T08:01:56.666Z,18.00
2022-08-31T08:04:26.505Z,16.00
2022-08-31T08:07:06.140Z,16.25
2022-08-31T08:10:07.163Z,16.50
2022-08-31T08:13:04.959Z,19.25
2022-08-31T08:15:56.742Z,18.00
2022-08-31T08:18:48.652Z,19.50
2022-08-31T08:21:21.291Z,19.50
2022-08-31T08:23:49.773Z,19.25
2022-08-31T08:26:54.067Z,20.25
2022-08-31T08:29:56.394Z,19.75
2022-08-31T08:32:31.883Z,19.00
2022-08-31T08:35:00.950Z,18.00
2022-08-31T08:37:47.792Z,18.75
2022-08-31T08:40:39.927Z,16.75
2022-08-31T08:43:11.732Z,15.00
2022-08-31T08:45:41.058Z,14.00
2022-08-31T08:48:12.975Z,15.00
2022-08-31T08:50:43.605Z,15.00
2022-08-31T08:53:22.617Z,15.25
2022-08-31T08:56:23.184Z,13.33
2022-08-31T08:58:49.955Z,13.75
2022-08-31T09:01:27.551Z,14.25
2022-08-31T09:04:12.077Z,14.00
2022-08-31T09:07:23.294Z,15.25
2022-08-31T09:10:03.224Z,14.33
2022-08-31T09:13:02.873Z,13.75
2022-08-31T09:15:39.805Z,12.67
2022-08-31T09:18:26.499Z,13.75
2022-08-31T09:21:21.010Z,12.00
2022-08-31T09:23:59.834Z,12.50
2022-08-31T09:26:35.982Z,12.50
2022-08-31T09:29:24.924Z,14.25
2022-08-31T09:32:06.135Z,12.75
2022-08-31T09:34:38.135Z,13.00
2022-08-31T09:37:21.655Z,13.00
2022-08-31T09:39:52.808Z,14.00
2022-08-31T09:42:32.140Z,12.50
2022-08-31T09:45:09.955Z,13.33
2022-08-31T09:47:58.553Z,14.00
2022-08-31T09:50:45.404Z,13.00
2022-08-31T09:53:45.402Z,13.67
2022-08-31T09:56:20.111Z,14.25
2022-08-31T09:58:51.995Z,14.00
2022-08-31T10:01:32.287Z,13.00
2022-08-31T10:04:21.189Z,12.50
2022-08-31T10:07:19.979Z,12.75
2022-08-31T10:09:56.391Z,13.75
2022-08-31T10:12:39.078Z,13.67
2022-08-31T10:15:22.001Z,13.50
2022-08-31T10:18:03.317Z,14.25
2022-08-31T10:20:38.609Z,14.00
2022-08-31T10:23:35.247Z,14.00
2022-08-31T10:26:19.887Z,14.33
2022-08-31T10:28:56.588Z,13.75
2022-08-31T10:31:48.092Z,14.00
2022-08-31T10:34:44.297Z,13.75
2022-08-31T10:37:31.768Z,14.00
2022-08-31T10:40:25.120Z,15.50
2022-08-31T10:43:09.544Z,14.00
2022-08-31T10:45:43.021Z,13.75
2022-08-31T10:48:13.307Z,13.00
2022-08-31T10:51:02.806Z,14.00
2022-08-31T10:53:52.458Z,12.50
2022-08-31T10:56:45.218Z,14.00
2022-08-31T10:59:35.070Z,14.00
2022-08-31T11:02:26.708Z,13.67
2022-08-31T11:05:02.298Z,12.50
2022-08-31T11:07:48.496Z,13.33
2022-08-31T11:10:20.328Z,13.50
2022-08-31T11:12:57.463Z,14.33
2022-08-31T11:15:44.742Z,14.25
2022-08-31T11:19:20.537Z,13.50
2022-08-31T11:22:14.269Z,14.00
2022-08-31T11:25:25.236Z,14.00
2022-08-31T11:28:07.324Z,15.50
2022-08-31T11:30:43.301Z,13.75
2022-08-31T11:33:21.208Z,14.00
2022-08-31T11:35:50.036Z,14.00
2022-08-31T11:38:52.368Z,13.67
2022-08-31T11:41:34.436Z,13.75
2022-08-31T11:44:04.902Z,14.00
2022-08-31T11:46:34.377Z,15.00
2022-08-31T11:49:02.766Z,14.00
2022-08-31T11:51:43.484Z,13.75
2022-08-31T11:54:42.366Z,13.75
2022-08-31T11:57:18.034Z,14.00
2022-08-31T11:59:51.084Z,13.75
2022-08-31T12:02:25.867Z,14.00
2022-08-31T12:04:57.792Z,12.50
2022-08-31T12:07:45.787Z,13.25
2022-08-31T12:10:27.574Z,14.00
2022-08-31T12:13:23.307Z,14.25
2022-08-31T12:16:01.486Z,13.75
2022-08-31T12:18:39.407Z,13.33
2022-08-31T12:21:58.275Z,14.25
2022-08-31T12:24:49.458Z,14.00
2022-08-31T12:27:44.454Z,13.75
2022-08-31T12:30:25.576Z,12.75
2022-08-31T12:33:18.605Z,14.00
2022-08-31T12:35:49.697Z,14.25
2022-08-31T12:38:20.725Z,15.50
2022-08-31T12:40:52.408Z,14.00
2022-08-31T12:43:33.122Z,12.25
2022-08-31T12:46:29.640Z,14.00
2022-08-31T12:49:16.245Z,14.00
2022-08-31T12:52:22.318Z,15.00
2022-08-31T12:55:23.613Z,13.50
2022-08-31T12:57:59.165Z,14.00
2022-08-31T13:00:30.405Z,14.00
2022-08-31T13:03:26.329Z,14.00
2022-08-31T13:06:08.641Z,15.00
2022-08-31T13:08:45.731Z,14.00
2022-08-31T13:11:23.852Z,14.00
2022-08-31T13:14:14.077Z,14.00
2022-08-31T13:16:48.889Z,14.00
2022-08-31T13:19:25.993Z,14.00
2022-08-31T13:22:32.825Z,14.00
2022-08-31T13:25:37.475Z,14.00
2022-08-31T13:28:33.345Z,14.25
2022-08-31T13:31:09.673Z,14.00
2022-08-31T13:33:42.964Z,14.25
2022-08-31T13:36:34.582Z,13.50
2022-08-31T13:39:17.105Z,13.50
2022-08-31T13:42:28.736Z,13.00
2022-08-31T13:45:01.326Z,14.00
2022-08-31T13:47:32.615Z,14.00
2022-08-31T13:50:13.376Z,14.25
2022-08-31T13:53:16.118Z,13.75
2022-08-31T13:55:43.912Z,14.25
2022-08-31T13:58:31.237Z,13.75
2022-08-31T14:01:20.822Z,15.25
2022-08-31T14:03:58.432Z,16.00
2022-08-31T14:06:34.138Z,15.50
2022-08-31T14:09:16.846Z,15.00
2022-08-31T14:12:05.722Z,14.00
2022-08-31T14:14:43.438Z,14.00
2022-08-31T14:17:16.655Z,14.00
2022-08-31T14:19:45.706Z,14.33
2022-08-31T14:22:31.786Z,14.25
2022-08-31T14:25:01.177Z,15.50
2022-08-31T14:27:30.648Z,15.00
2022-08-31T14:29:58.704Z,13.67
2022-08-31T14:32:29.699Z,13.75
2022-08-31T14:34:59.512Z,14.00
2022-08-31T14:37:30.553Z,14.00
2022-08-31T14:40:05.500Z,15.00
2022-08-31T14:42:38.557Z,14.25
2022-08-31T14:45:18.942Z,15.50
2022-08-31T14:47:52.520Z,14.00
2022-08-31T14:50:25.626Z,14.25
2022-08-31T14:52:55.810Z,15.00
2022-08-31T14:55:26.200Z,13.67
2022-08-31T14:58:01.866Z,14.00
2022-08-31T15:00:32.253Z,15.75
2022-08-31T15:03:02.700Z,14.00
2022-08-31T15:05:32.771Z,15.00
2022-08-31T15:08:01.312Z,13.75
2022-08-31T15:10:29.419Z,15.00
2022-08-31T15:12:57.567Z,15.75
2022-08-31T15:15:26.096Z,14.00
2022-08-31T15:17:54.447Z,15.25
2022-08-31T15:20:23.420Z,13.25
2022-08-31T15:22:52.959Z,14.00
2022-08-31T15:25:23.621Z,14.25
2022-08-31T15:27:51.902Z,15.00
2022-08-31T15:30:20.549Z,14.00
2022-08-31T15:32:49.037Z,14.00
2022-08-31T15:35:21.008Z,13.25
2022-08-31T15:37:57.497Z,15.50
2022-08-31T15:40:29.210Z,15.25
2022-08-31T15:42:58.817Z,15.00
2022-08-31T15:45:31.009Z,14.00
2022-08-31T15:48:18.692Z,15.00
2022-08-31T15:50:53.968Z,14.00
2022-08-31T15:53:24.106Z,14.00
2022-08-31T15:55:52.228Z,14.00
2022-08-31T15:58:24.926Z,16.00
2022-08-31T16:00:53.857Z,14.00
2022-08-31T16:03:22.201Z,14.50
2022-08-31T16:05:50.310Z,15.50
2022-08-31T16:08:19.768Z,13.67
2022-08-31T16:10:48.227Z,14.25
2022-08-31T16:13:16.520Z,13.75
2022-08-31T16:15:51.417Z,14.00
2022-08-31T16:18:22.155Z,14.00
2022-08-31T16:20:52.102Z,14.00
2022-08-31T16:23:21.609Z,14.00
2022-08-31T16:25:50.041Z,14.00
2022-08-31T16:28:21.046Z,14.50
2022-08-31T16:30:51.173Z,14.00
2022-08-31T16:33:20.992Z,13.25
2022-08-31T16:35:49.929Z,13.75
2022-08-31T16:38:19.509Z,14.25
2022-08-31T16:40:49.070Z,14.00
2022-08-31T16:43:17.227Z,14.33
2022-08-31T16:45:45.620Z,14.50
2022-08-31T16:48:32.577Z,12.75
2022-08-31T16:51:02.542Z,13.50
2022-08-31T16:53:31.947Z,14.00
2022-08-31T16:56:03.816Z,14.00
2022-08-31T16:58:51.140Z,14.00
2022-08-31T17:01:23.451Z,14.00
2022-08-31T17:03:59.935Z,13.25
2022-08-31T17:06:31.534Z,12.00
2022-08-31T17:09:05.076Z,12.50
2022-08-31T17:11:49.398Z,12.25
2022-08-31T17:14:24.148Z,13.25
2022-08-31T17:16:53.011Z,12.50
2022-08-31T17:19:26.585Z,12.50
2022-08-31T17:21:54.754Z,12.67
2022-08-31T17:24:26.809Z,12.50
2022-08-31T17:26:59.957Z,12.00
2022-08-31T17:29:32.356Z,12.75
2022-08-31T17:32:05.118Z,13.00
2022-08-31T17:34:35.080Z,12.50
2022-08-31T17:37:09.255Z,12.50
2022-08-31T17:39:37.567Z,12.25
2022-08-31T17:42:06.221Z,12.75
2022-08-31T17:44:34.926Z,12.75
2022-08-31T17:47:03.900Z,12.67
2022-08-31T17:49:36.599Z,12.00
2022-08-31T17:52:08.158Z,12.75
2022-08-31T17:54:42.296Z,12.25
2022-08-31T17:57:13.637Z,13.00
2022-08-31T17:59:46.641Z,14.25
2022-08-31T18:02:21.936Z,13.33
2022-08-31T18:04:52.571Z,12.00
2022-08-31T18:07:21.669Z,13.50
2022-08-31T18:09:50.070Z,13.75
2022-08-31T18:12:22.283Z,14.25
2022-08-31T18:14:50.838Z,14.00
2022-08-31T18:17:22.530Z,14.00
2022-08-31T18:19:50.910Z,14.00
2022-08-31T18:22:19.998Z,14.00
2022-08-31T18:24:48.211Z,14.00
2022-08-31T18:27:16.739Z,14.00
2022-08-31T18:29:45.834Z,13.50
2022-08-31T18:32:14.609Z,14.25
2022-08-31T18:34:47.659Z,14.00
2022-08-31T18:37:22.300Z,14.00
2022-08-31T18:40:09.691Z,14.33
2022-08-31T18:42:57.185Z,14.00
2022-08-31T18:45:28.048Z,14.00
2022-08-31T18:50:48.647Z,14.25
2022-08-31T18:53:28.733Z,13.50
2022-08-31T18:56:10.028Z,14.00
2022-08-31T18:58:39.103Z,14.00
2022-08-31T19:01:10.809Z,14.00
2022-08-31T19:03:41.329Z,14.00
2022-08-31T19:06:18.987Z,14.33
2022-08-31T19:08:48.160Z,14.25
2022-08-31T19:11:27.390Z,14.00
2022-08-31T19:13:57.108Z,14.00
2022-08-31T19:16:29.258Z,13.50
